createdAt,value
2018-07-03T00:01:07.388Z,18.90
2018-07-03T00:03:35.746Z,18.80
2018-07-03T00:06:03.444Z,18.80
2018-07-03T00:08:31.029Z,18.80
2018-07-03T00:10:58.681Z,18.70
2018-07-03T00:13:26.306Z,18.70
2018-07-03T00:15:53.900Z,18.60
2018-07-03T00:18:23.554Z,18.60
2018-07-03T00:20:51.209Z,18.60
2018-07-03T00:23:18.870Z,18.60
2018-07-03T00:25:47.737Z,18.60
2018-07-03T00:28:15.331Z,18.50
2018-07-03T00:30:42.998Z,18.50
2018-07-03T00:33:10.664Z,18.50
2018-07-03T00:35:38.231Z,18.50
2018-07-03T00:38:05.907Z,18.50
2018-07-03T00:40:33.494Z,18.40
2018-07-03T00:43:01.063Z,18.40
2018-07-03T00:45:29.366Z,18.40
2018-07-03T00:47:56.932Z,18.40
2018-07-03T00:50:24.521Z,18.40
2018-07-03T00:52:52.161Z,18.40
2018-07-03T00:55:19.775Z,18.50
2018-07-03T00:57:48.204Z,18.50
2018-07-03T01:00:26.966Z,18.50
2018-07-03T01:02:54.585Z,18.50
2018-07-03T01:05:22.176Z,18.50
2018-07-03T01:07:49.767Z,18.50
2018-07-03T01:10:17.325Z,18.40
2018-07-03T01:12:44.905Z,18.40
2018-07-03T01:15:12.513Z,18.40
2018-07-03T01:17:40.162Z,18.40
2018-07-03T01:20:07.770Z,18.30
2018-07-03T01:25:03.880Z,18.30
2018-07-03T01:27:31.477Z,18.30
2018-07-03T01:29:59.043Z,18.30
2018-07-03T01:32:26.655Z,18.30
2018-07-03T01:34:54.230Z,18.20
2018-07-03T01:37:21.820Z,18.20
2018-07-03T01:42:16.932Z,18.10
2018-07-03T01:47:12.019Z,18.10
2018-07-03T01:49:39.759Z,18.00
2018-07-03T01:52:08.352Z,18.00
2018-07-03T01:54:36.773Z,18.00
2018-07-03T01:57:04.400Z,17.90
2018-07-03T01:59:31.979Z,17.90
2018-07-03T02:01:59.888Z,17.90
2018-07-03T02:04:27.504Z,17.90
2018-07-03T02:06:55.804Z,17.90
2018-07-03T02:11:50.877Z,17.80
2018-07-03T02:14:18.521Z,17.80
2018-07-03T02:16:46.120Z,17.70
2018-07-03T02:19:13.825Z,17.70
2018-07-03T02:21:41.556Z,17.70
2018-07-03T02:24:09.418Z,17.70
2018-07-03T02:26:36.995Z,17.70
2018-07-03T02:29:04.616Z,17.60
2018-07-03T02:31:32.184Z,17.60
2018-07-03T02:33:59.788Z,17.60
2018-07-03T02:36:27.347Z,17.60
2018-07-03T02:38:54.994Z,17.50
2018-07-03T02:41:22.610Z,17.50
2018-07-03T02:43:50.176Z,17.50
2018-07-03T02:46:17.829Z,17.40
2018-07-03T02:48:45.515Z,17.40
2018-07-03T02:51:13.158Z,17.40
2018-07-03T02:53:41.018Z,17.40
2018-07-03T02:56:08.638Z,17.30
2018-07-03T02:58:36.214Z,17.30
2018-07-03T03:01:04.138Z,17.30
2018-07-03T03:03:31.725Z,17.20
2018-07-03T03:05:59.381Z,17.20
2018-07-03T03:08:27.110Z,17.20
2018-07-03T03:10:55.722Z,17.20
2018-07-03T03:13:23.344Z,17.30
2018-07-03T03:15:51.005Z,17.20
2018-07-03T03:18:18.648Z,17.20
2018-07-03T03:20:46.234Z,17.30
2018-07-03T03:23:13.855Z,17.20
2018-07-03T03:25:42.425Z,17.20
2018-07-03T03:28:10.040Z,17.30
2018-07-03T03:30:37.636Z,17.30
2018-07-03T03:33:05.268Z,17.20
2018-07-03T03:35:33.330Z,17.30
2018-07-03T03:38:00.948Z,17.30
2018-07-03T03:40:28.604Z,17.30
2018-07-03T03:42:56.171Z,17.30
2018-07-03T03:45:24.518Z,17.30
2018-07-03T03:50:20.614Z,17.30
2018-07-03T03:52:48.205Z,17.40
2018-07-03T03:55:15.880Z,17.40
2018-07-03T03:57:43.484Z,17.40
2018-07-03T04:00:11.112Z,17.40
2018-07-03T04:02:39.082Z,17.40
2018-07-03T04:05:06.781Z,17.40
2018-07-03T04:07:34.396Z,17.40
2018-07-03T04:10:02.074Z,17.40
2018-07-03T04:12:29.702Z,17.50
2018-07-03T04:14:57.313Z,17.50
2018-07-03T04:17:24.942Z,17.50
2018-07-03T04:19:55.318Z,17.50
2018-07-03T04:22:23.885Z,17.60
2018-07-03T04:24:51.488Z,17.70
2018-07-03T04:27:19.077Z,17.80
2018-07-03T04:29:47.029Z,17.90
2018-07-03T04:32:14.705Z,17.90
2018-07-03T04:34:43.310Z,18.00
2018-07-03T04:37:10.969Z,18.20
2018-07-03T04:39:38.578Z,18.30
2018-07-03T04:42:06.322Z,18.40
2018-07-03T04:44:34.921Z,18.40
2018-07-03T04:47:02.537Z,18.50
2018-07-03T04:49:30.130Z,18.60
2018-07-03T04:51:57.743Z,18.70
2018-07-03T04:54:25.453Z,18.80
2018-07-03T04:56:53.153Z,18.80
2018-07-03T04:59:20.739Z,19.00
2018-07-03T05:01:48.409Z,19.10
2018-07-03T05:04:16.081Z,19.10
2018-07-03T05:06:43.715Z,19.30
2018-07-03T05:09:12.029Z,19.40
2018-07-03T05:11:39.677Z,19.60
2018-07-03T05:14:07.963Z,19.70
2018-07-03T05:16:35.550Z,19.80
2018-07-03T05:19:03.207Z,19.90
2018-07-03T05:21:30.874Z,20.00
2018-07-03T05:23:58.515Z,20.20
2018-07-03T05:26:26.125Z,20.30
2018-07-03T05:28:53.739Z,20.40
2018-07-03T05:31:21.341Z,20.50
2018-07-03T05:33:48.967Z,20.60
2018-07-03T05:36:16.626Z,20.60
2018-07-03T05:38:44.256Z,20.70
2018-07-03T05:41:11.997Z,20.80
2018-07-03T05:43:39.629Z,20.80
2018-07-03T05:46:07.317Z,21.00
2018-07-03T05:48:34.981Z,21.10
2018-07-03T05:53:30.119Z,21.30
2018-07-03T05:55:57.901Z,21.40
2018-07-03T05:58:25.769Z,21.40
2018-07-03T06:00:53.407Z,21.50
2018-07-03T06:03:21.008Z,21.60
2018-07-03T06:05:48.629Z,21.60
2018-07-03T06:10:43.776Z,21.70
2018-07-03T06:13:11.442Z,21.70
2018-07-03T06:15:38.999Z,21.60
2018-07-03T06:18:07.518Z,21.70
2018-07-03T06:20:38.268Z,21.60
2018-07-03T06:23:05.945Z,21.60
2018-07-03T06:25:33.553Z,21.60
2018-07-03T06:28:01.190Z,21.60
2018-07-03T06:30:28.853Z,21.60
2018-07-03T06:32:56.776Z,21.70
2018-07-03T06:35:24.487Z,21.80
2018-07-03T06:37:52.229Z,21.80
2018-07-03T06:40:19.944Z,21.80
2018-07-03T06:42:47.533Z,21.80
2018-07-03T06:45:16.546Z,21.80
2018-07-03T06:47:44.222Z,21.80
2018-07-03T06:50:11.874Z,21.80
2018-07-03T06:52:39.544Z,21.80
2018-07-03T06:55:07.204Z,22.00
2018-07-03T06:57:34.837Z,22.00
2018-07-03T07:02:30.033Z,22.00
2018-07-03T07:04:57.695Z,22.00
2018-07-03T07:07:25.375Z,22.10
2018-07-03T07:09:52.994Z,22.00
2018-07-03T07:12:20.654Z,22.10
2018-07-03T07:14:48.320Z,22.10
2018-07-03T07:17:15.959Z,22.20
2018-07-03T07:19:43.593Z,22.20
2018-07-03T07:22:11.154Z,22.20
2018-07-03T07:24:39.350Z,22.30
2018-07-03T07:27:06.971Z,22.40
2018-07-03T07:29:34.555Z,22.50
2018-07-03T07:32:02.205Z,22.50
2018-07-03T07:34:29.770Z,22.50
2018-07-03T07:36:57.348Z,22.60
2018-07-03T07:39:24.900Z,22.70
2018-07-03T07:41:53.114Z,22.80
2018-07-03T07:44:20.789Z,22.90
2018-07-03T07:46:48.472Z,23.00
2018-07-03T07:51:43.585Z,23.20
2018-07-03T07:54:11.401Z,23.30
2018-07-03T07:56:39.035Z,23.40
2018-07-03T07:59:06.682Z,23.50
2018-07-03T08:01:34.295Z,23.60
2018-07-03T08:04:01.928Z,23.80
2018-07-03T08:06:29.507Z,23.80
2018-07-03T08:08:57.132Z,23.90
2018-07-03T08:11:25.052Z,24.00
2018-07-03T08:13:52.728Z,24.10
2018-07-03T08:16:20.299Z,24.20
2018-07-03T08:18:48.428Z,24.30
2018-07-03T08:21:16.032Z,24.30
2018-07-03T08:23:43.624Z,24.40
2018-07-03T08:28:46.659Z,24.60
2018-07-03T08:31:14.290Z,24.60
2018-07-03T08:33:41.885Z,24.80
2018-07-03T08:36:09.525Z,25.00
2018-07-03T08:38:38.139Z,25.00
2018-07-03T08:41:05.829Z,25.20
2018-07-03T08:43:33.426Z,25.30
2018-07-03T08:46:01.058Z,25.40
2018-07-03T08:48:28.695Z,25.50
2018-07-03T08:50:56.268Z,25.60
2018-07-03T08:53:23.944Z,25.60
2018-07-03T08:58:19.019Z,25.70
2018-07-03T09:00:46.681Z,25.70
2018-07-03T09:03:14.288Z,25.70
2018-07-03T09:05:41.907Z,25.80
2018-07-03T09:08:09.550Z,26.00
2018-07-03T09:10:37.119Z,26.10
2018-07-03T09:13:04.768Z,26.20
2018-07-03T09:15:32.429Z,26.30
2018-07-03T09:18:00.147Z,26.50
2018-07-03T09:20:28.287Z,26.80
2018-07-03T09:22:55.979Z,27.20
2018-07-03T09:25:24.143Z,27.60
2018-07-03T09:27:51.690Z,27.80
2018-07-03T09:30:19.348Z,28.10
2018-07-03T09:32:46.944Z,28.30
2018-07-03T09:35:16.089Z,28.60
2018-07-03T09:37:43.704Z,28.80
2018-07-03T09:40:11.342Z,29.10
2018-07-03T09:42:38.972Z,29.30
2018-07-03T09:45:07.308Z,29.40
2018-07-03T09:47:34.867Z,29.30
2018-07-03T09:50:02.531Z,29.20
2018-07-03T09:52:30.170Z,29.00
2018-07-03T09:54:57.795Z,28.90
2018-07-03T09:57:32.020Z,28.90
2018-07-03T09:59:59.607Z,29.00
2018-07-03T10:02:27.175Z,29.10
2018-07-03T10:04:54.798Z,29.20
2018-07-03T10:07:22.453Z,29.40
2018-07-03T10:09:50.170Z,29.50
2018-07-03T10:12:18.581Z,29.60
2018-07-03T10:14:46.215Z,29.80
2018-07-03T10:17:13.833Z,30.10
2018-07-03T10:19:42.818Z,30.30
2018-07-03T10:22:10.484Z,30.50
2018-07-03T10:24:38.114Z,30.70
2018-07-03T10:27:05.807Z,31.00
2018-07-03T10:29:33.364Z,31.20
2018-07-03T10:32:01.079Z,31.30
2018-07-03T10:34:28.665Z,31.50
2018-07-03T10:36:56.953Z,31.90
2018-07-03T10:39:25.016Z,32.30
2018-07-03T10:41:52.887Z,32.50
2018-07-03T10:44:21.564Z,32.70
2018-07-03T10:46:49.181Z,32.80
2018-07-03T10:49:16.771Z,32.70
2018-07-03T10:51:44.406Z,32.30
2018-07-03T10:54:12.087Z,32.00
2018-07-03T10:56:40.422Z,31.80
2018-07-03T10:59:08.107Z,31.50
2018-07-03T11:01:35.724Z,31.30
2018-07-03T11:04:03.381Z,31.20
2018-07-03T11:06:30.952Z,31.10
2018-07-03T11:08:58.604Z,31.00
2018-07-03T11:11:26.192Z,31.00
2018-07-03T11:13:53.806Z,31.00
2018-07-03T11:16:21.462Z,31.20
2018-07-03T11:18:49.036Z,31.30
2018-07-03T11:21:16.612Z,31.30
2018-07-03T11:23:44.335Z,31.60
2018-07-03T11:26:11.992Z,31.70
2018-07-03T11:28:39.562Z,31.90
2018-07-03T11:31:08.090Z,32.10
2018-07-03T11:33:36.270Z,32.30
2018-07-03T11:36:03.925Z,32.40
2018-07-03T11:38:31.571Z,32.30
2018-07-03T11:40:59.249Z,32.60
2018-07-03T11:43:27.794Z,33.30
2018-07-03T11:45:55.466Z,34.20
2018-07-03T11:48:24.109Z,34.90
2018-07-03T11:50:51.949Z,35.80
2018-07-03T11:53:19.683Z,36.70
2018-07-03T11:55:47.388Z,36.80
2018-07-03T11:58:15.051Z,36.10
2018-07-03T12:00:42.743Z,35.60
2018-07-03T12:03:10.378Z,34.90
2018-07-03T12:05:38.040Z,34.60
2018-07-03T12:08:05.753Z,34.80
2018-07-03T12:10:33.333Z,35.30
2018-07-03T12:13:00.979Z,36.30
2018-07-03T12:15:35.691Z,37.40
2018-07-03T12:18:04.128Z,38.40
2018-07-03T12:20:32.755Z,39.40
2018-07-03T12:23:03.865Z,39.70
2018-07-03T12:25:31.494Z,39.20
2018-07-03T12:27:59.198Z,38.10
2018-07-03T12:30:27.758Z,37.20
2018-07-03T12:32:55.996Z,36.50
2018-07-03T12:35:24.916Z,36.10
2018-07-03T12:37:52.571Z,35.90
2018-07-03T12:40:20.207Z,35.60
2018-07-03T12:42:47.965Z,35.70
2018-07-03T12:45:15.654Z,36.70
2018-07-03T12:47:43.266Z,37.60
2018-07-03T12:50:10.970Z,38.90
2018-07-03T12:52:38.663Z,39.80
2018-07-03T12:55:06.440Z,40.80
2018-07-03T12:57:34.050Z,41.60
2018-07-03T13:00:01.729Z,42.50
2018-07-03T13:02:29.358Z,43.70
2018-07-03T13:04:57.043Z,44.50
2018-07-03T13:07:24.691Z,45.40
2018-07-03T13:09:52.238Z,45.90
2018-07-03T13:12:19.803Z,45.40
2018-07-03T13:14:47.585Z,44.90
2018-07-03T13:17:15.315Z,44.50
2018-07-03T13:19:42.949Z,44.00
2018-07-03T13:22:11.528Z,43.60
2018-07-03T13:24:39.191Z,43.10
2018-07-03T13:27:07.835Z,43.00
2018-07-03T13:29:36.520Z,43.30
2018-07-03T13:32:04.153Z,43.10
2018-07-03T13:34:31.704Z,42.30
2018-07-03T13:36:59.574Z,42.10
2018-07-03T13:39:27.463Z,43.20
2018-07-03T13:41:55.104Z,45.10
2018-07-03T13:44:38.356Z,46.30
2018-07-03T13:47:05.994Z,46.90
2018-07-03T13:49:33.647Z,47.90
2018-07-03T13:52:01.256Z,48.50
2018-07-03T13:54:28.887Z,48.20
2018-07-03T13:56:56.516Z,47.70
2018-07-03T13:59:24.175Z,47.40
2018-07-03T14:01:51.825Z,46.90
2018-07-03T14:04:19.461Z,45.70
2018-07-03T14:06:47.734Z,44.00
2018-07-03T14:09:15.389Z,42.30
2018-07-03T14:11:42.985Z,40.90
2018-07-03T14:14:10.678Z,39.70
2018-07-03T14:16:38.277Z,38.50
2018-07-03T14:19:06.011Z,37.40
2018-07-03T14:21:33.703Z,37.10
2018-07-03T14:24:01.390Z,37.40
2018-07-03T14:26:29.038Z,37.60
2018-07-03T14:31:24.943Z,39.90
2018-07-03T14:33:52.538Z,41.50
2018-07-03T14:36:20.214Z,43.20
2018-07-03T14:38:47.862Z,44.40
2018-07-03T14:41:15.516Z,45.10
2018-07-03T14:43:44.856Z,45.10
2018-07-03T14:46:12.448Z,43.40
2018-07-03T14:48:40.085Z,41.50
2018-07-03T14:51:07.689Z,40.90
2018-07-03T14:53:36.073Z,41.20
2018-07-03T14:56:03.692Z,42.20
2018-07-03T14:58:31.322Z,43.20
2018-07-03T15:00:59.015Z,43.60
2018-07-03T15:03:27.264Z,43.80
2018-07-03T15:08:22.902Z,43.10
2018-07-03T15:10:51.229Z,42.90
2018-07-03T15:13:18.864Z,42.20
2018-07-03T15:15:47.022Z,41.00
2018-07-03T15:18:14.695Z,40.20
2018-07-03T15:20:42.314Z,39.90
2018-07-03T15:23:09.950Z,38.50
2018-07-03T15:25:37.635Z,37.00
2018-07-03T15:28:05.268Z,35.60
2018-07-03T15:30:32.903Z,35.00
2018-07-03T15:33:00.499Z,35.80
2018-07-03T15:35:28.252Z,35.60
2018-07-03T15:37:55.969Z,35.00
2018-07-03T15:40:23.570Z,34.40
2018-07-03T15:42:52.070Z,33.90
2018-07-03T15:45:20.215Z,33.50
2018-07-03T15:47:54.648Z,33.30
2018-07-03T15:50:22.276Z,33.00
2018-07-03T15:52:50.498Z,32.80
2018-07-03T15:55:18.125Z,32.50
2018-07-03T15:57:45.714Z,32.10
2018-07-03T16:00:14.914Z,31.80
2018-07-03T16:02:54.783Z,31.60
2018-07-03T16:05:34.623Z,31.50
2018-07-03T16:08:11.114Z,31.40
2018-07-03T16:10:39.702Z,31.30
2018-07-03T16:13:07.329Z,31.10
2018-07-03T16:15:34.961Z,31.20
2018-07-03T16:18:02.578Z,31.10
2018-07-03T16:23:03.308Z,30.90
2018-07-03T16:25:31.666Z,30.90
2018-07-03T16:27:59.351Z,30.90
2018-07-03T16:30:26.906Z,30.90
2018-07-03T16:32:54.538Z,30.70
2018-07-03T16:35:22.175Z,30.30
2018-07-03T16:37:49.790Z,30.00
2018-07-03T16:40:18.369Z,29.80
2018-07-03T16:42:46.066Z,29.80
2018-07-03T16:45:13.654Z,29.80
2018-07-03T16:47:41.278Z,29.80
2018-07-03T16:50:12.249Z,29.80
2018-07-03T16:52:39.875Z,29.80
2018-07-03T16:55:07.956Z,29.80
2018-07-03T16:57:35.690Z,29.70
2018-07-03T17:00:04.452Z,29.70
2018-07-03T17:02:32.592Z,29.50
2018-07-03T17:05:00.713Z,29.40
2018-07-03T17:07:28.612Z,29.30
2018-07-03T17:09:56.210Z,29.20
2018-07-03T17:12:23.792Z,29.10
2018-07-03T17:14:51.473Z,29.00
2018-07-03T17:17:19.084Z,28.90
2018-07-03T17:19:47.279Z,29.00
2018-07-03T17:22:15.519Z,28.70
2018-07-03T17:24:43.154Z,28.60
2018-07-03T17:27:10.771Z,28.50
2018-07-03T17:29:39.040Z,28.50
2018-07-03T17:32:07.450Z,28.30
2018-07-03T17:34:35.133Z,28.30
2018-07-03T17:37:02.855Z,28.20
2018-07-03T17:39:41.804Z,28.10
2018-07-03T17:42:20.611Z,28.00
2018-07-03T17:46:56.275Z,27.90
2018-07-03T17:49:23.840Z,27.90
2018-07-03T17:51:51.557Z,27.70
2018-07-03T17:54:19.167Z,27.70
2018-07-03T17:56:47.626Z,27.70
2018-07-03T17:59:18.803Z,27.60
2018-07-03T18:01:46.407Z,27.50
2018-07-03T18:04:14.016Z,27.60
2018-07-03T18:06:41.664Z,27.40
2018-07-03T18:09:10.659Z,27.30
2018-07-03T18:11:38.352Z,27.40
2018-07-03T18:14:06.494Z,27.50
2018-07-03T18:16:34.773Z,27.60
2018-07-03T18:19:08.179Z,27.60
2018-07-03T18:21:35.868Z,27.60
2018-07-03T18:24:03.773Z,27.70
2018-07-03T18:26:32.427Z,27.80
2018-07-03T18:29:00.590Z,27.90
2018-07-03T18:33:55.830Z,27.90
2018-07-03T18:36:23.568Z,27.80
2018-07-03T18:38:51.251Z,27.80
2018-07-03T18:41:18.907Z,27.70
2018-07-03T18:46:14.433Z,27.40
2018-07-03T18:48:42.100Z,27.20
2018-07-03T18:51:09.783Z,27.10
2018-07-03T18:53:37.507Z,27.00
2018-07-03T18:56:05.332Z,26.80
2018-07-03T18:58:33.068Z,26.70
2018-07-03T19:01:01.605Z,26.60
2018-07-03T19:03:30.291Z,26.50
2018-07-03T19:05:58.026Z,26.40
2018-07-03T19:08:25.749Z,26.30
2018-07-03T19:10:54.498Z,26.20
2018-07-03T19:13:22.196Z,26.10
2018-07-03T19:18:17.438Z,26.00
2018-07-03T19:20:45.203Z,25.90
2018-07-03T19:23:12.845Z,25.80
2018-07-03T19:25:41.470Z,25.70
2018-07-03T19:28:09.242Z,25.70
2018-07-03T19:30:37.486Z,25.60
2018-07-03T19:33:05.215Z,25.50
2018-07-03T19:35:32.882Z,25.50
2018-07-03T19:38:04.247Z,25.40
2018-07-03T19:40:32.644Z,25.40
2018-07-03T19:43:36.226Z,25.40
2018-07-03T19:46:04.532Z,25.20
2018-07-03T19:48:32.223Z,25.10
2018-07-03T19:50:59.912Z,25.00
2018-07-03T19:53:27.731Z,25.00
2018-07-03T19:55:56.769Z,25.00
2018-07-03T19:58:24.533Z,24.90
2018-07-03T20:00:53.327Z,24.90
2018-07-03T20:03:21.036Z,24.90
2018-07-03T20:05:48.770Z,24.80
2018-07-03T20:08:16.473Z,24.70
2018-07-03T20:10:44.289Z,24.70
2018-07-03T20:13:13.631Z,24.60
2018-07-03T20:15:41.278Z,24.60
2018-07-03T20:18:10.444Z,24.60
2018-07-03T20:20:38.177Z,24.50
2018-07-03T20:23:06.586Z,24.50
2018-07-03T20:25:36.058Z,24.40
2018-07-03T20:28:03.767Z,24.30
2018-07-03T20:30:31.478Z,24.30
2018-07-03T20:32:59.246Z,24.20
2018-07-03T20:35:27.079Z,24.30
2018-07-03T20:38:09.251Z,24.20
2018-07-03T20:40:48.751Z,24.20
2018-07-03T20:43:16.453Z,24.10
2018-07-03T20:48:11.605Z,23.90
2018-07-03T20:50:39.242Z,23.90
2018-07-03T20:55:34.442Z,23.90
2018-07-03T20:58:02.109Z,23.80
2018-07-03T21:00:29.767Z,23.80
2018-07-03T21:02:57.405Z,23.80
2018-07-03T21:05:25.720Z,23.70
2018-07-03T21:07:53.687Z,23.70
2018-07-03T21:12:48.870Z,23.60
2018-07-03T21:15:17.112Z,23.50
2018-07-03T21:17:44.757Z,23.50
2018-07-03T21:20:12.490Z,23.50
2018-07-03T21:22:40.179Z,23.50
2018-07-03T21:25:07.894Z,23.40
2018-07-03T21:27:35.536Z,23.40
2018-07-03T21:30:03.325Z,23.30
2018-07-03T21:32:31.561Z,23.30
2018-07-03T21:34:59.253Z,23.30
2018-07-03T21:37:26.883Z,23.20
2018-07-03T21:39:54.494Z,23.20
2018-07-03T21:42:22.141Z,23.10
2018-07-03T21:44:49.763Z,23.10
2018-07-03T21:47:17.361Z,23.10
2018-07-03T21:49:45.009Z,23.10
2018-07-03T21:52:12.623Z,23.10
2018-07-03T21:54:40.326Z,23.10
2018-07-03T21:57:08.036Z,23.10
2018-07-03T21:59:35.665Z,23.00
2018-07-03T22:02:04.285Z,23.00
2018-07-03T22:04:32.028Z,23.00
2018-07-03T22:06:59.652Z,22.90
2018-07-03T22:09:27.318Z,22.90
2018-07-03T22:11:55.043Z,22.90
2018-07-03T22:14:22.645Z,22.90
2018-07-03T22:16:50.247Z,22.80
2018-07-03T22:19:17.865Z,22.70
2018-07-03T22:21:45.596Z,22.70
2018-07-03T22:24:14.212Z,22.70
2018-07-03T22:26:41.844Z,22.60
2018-07-03T22:29:09.399Z,22.60
2018-07-03T22:31:37.035Z,22.60
2018-07-03T22:34:04.685Z,22.50
2018-07-03T22:36:32.330Z,22.60
2018-07-03T22:39:00.004Z,22.50
2018-07-03T22:41:27.652Z,22.50
2018-07-03T22:43:56.107Z,22.50
2018-07-03T22:46:23.687Z,22.50
2018-07-03T22:48:51.312Z,22.40
2018-07-03T22:51:18.934Z,22.40
2018-07-03T22:53:46.582Z,22.40
2018-07-03T22:56:14.183Z,22.40
2018-07-03T22:58:42.632Z,22.30
2018-07-03T23:01:10.278Z,22.30
2018-07-03T23:03:38.800Z,22.20
2018-07-03T23:06:06.406Z,22.20
2018-07-03T23:08:34.080Z,22.20
2018-07-03T23:11:01.721Z,22.20
2018-07-03T23:13:29.316Z,22.20
2018-07-03T23:15:56.975Z,22.20
2018-07-03T23:18:25.404Z,22.10
2018-07-03T23:20:53.034Z,22.10
2018-07-03T23:23:20.640Z,22.00
2018-07-03T23:25:48.172Z,22.10
2018-07-03T23:28:15.721Z,22.10
2018-07-03T23:30:43.348Z,22.10
2018-07-03T23:33:10.927Z,22.20
2018-07-03T23:35:38.626Z,22.10
2018-07-03T23:38:06.409Z,22.20
2018-07-03T23:40:34.007Z,22.20
2018-07-03T23:43:01.546Z,22.20
2018-07-03T23:45:39.077Z,22.20
2018-07-03T23:48:18.477Z,22.20
2018-07-03T23:50:58.493Z,22.20
2018-07-03T23:53:39.299Z,22.10
2018-07-03T23:56:19.331Z,22.10
2018-07-03T23:58:58.134Z,22.10
